Time;durP1;ratioP1;P1;durP2;ratioP2;P2;SDS_P1;SDS_P2;PMS_P1;PMS_P2;Temp;Humidity;BMP_temperature;BMP_pressure;BME280_temperature;BME280_humidity;BME280_pressure;Samples;Min_cycle;Max_cycle;Signal;HPM_P1;HPM_P2
2021/08/25 00:01:02;;;;;;;20.00;17.85;;;;;;;18.86;77.82;99459.93;1728476;81;21062;-53
2021/08/25 00:03:28;;;;;;;14.65;13.15;;;;;;;18.84;77.82;99458.33;1725366;82;21136;-53
2021/08/25 00:05:54;;;;;;;12.93;11.60;;;;;;;18.84;77.79;99451.01;1722425;82;21406;-55
2021/08/25 00:08:21;;;;;;;10.70;9.63;;;;;;;18.83;77.71;99448.41;1721456;82;21029;-52
2021/08/25 00:10:48;;;;;;;12.63;10.15;;;;;;;18.82;77.54;99455.72;1762041;80;21057;-54
2021/08/25 00:13:14;;;;;;;11.05;9.55;;;;;;;18.80;77.43;99456.34;1762130;80;21516;-54
2021/08/25 00:15:42;;;;;;;10.23;8.95;;;;;;;18.79;77.34;99466.05;1760091;80;21034;-53
2021/08/25 00:18:08;;;;;;;9.85;8.85;;;;;;;18.78;77.37;99465.19;1761554;80;21149;-55
2021/08/25 00:20:37;;;;;;;10.80;9.73;;;;;;;18.77;77.38;99467.55;1759230;80;21069;-54
2021/08/25 00:23:03;;;;;;;11.75;9.35;;;;;;;18.77;77.31;99477.09;1762997;80;20986;-54
2021/08/25 00:25:30;;;;;;;12.23;11.08;;;;;;;18.75;77.31;99473.62;1699814;82;20934;-53
2021/08/25 00:27:57;;;;;;;10.43;9.33;;;;;;;18.76;77.47;99484.03;1765897;80;20934;-53
2021/08/25 00:30:23;;;;;;;10.03;8.13;;;;;;;18.75;77.63;99485.89;1764735;80;21804;-55
2021/08/25 00:32:50;;;;;;;8.35;7.55;;;;;;;18.75;77.72;99490.47;1763727;80;21431;-54
2021/08/25 00:35:16;;;;;;;9.53;7.53;;;;;;;18.74;77.86;99484.16;1700140;82;21642;-53
2021/08/25 00:37:42;;;;;;;8.08;7.30;;;;;;;18.72;77.88;99482.05;1757630;80;20894;-54
2021/08/25 00:40:12;;;;;;;10.18;6.70;;;;;;;18.71;77.89;99461.27;1763525;80;20907;-54
2021/08/25 00:42:38;;;;;;;7.33;6.62;;;;;;;18.72;77.89;99464.83;1762554;80;21584;-53
2021/08/25 00:45:08;;;;;;;7.97;6.78;;;;;;;18.72;77.98;99462.97;1698752;82;20979;-54
2021/08/25 00:47:38;;;;;;;10.00;8.40;;;;;;;18.72;77.91;99471.14;1762409;80;20900;-53
2021/08/25 00:50:04;;;;;;;9.80;8.20;;;;;;;18.72;77.86;99481.18;1700707;82;20933;-54
2021/08/25 00:52:31;;;;;;;10.53;9.63;;;;;;;18.68;77.89;99486.05;1764402;80;22175;-54
2021/08/25 00:54:59;;;;;;;7.72;6.97;;;;;;;18.67;77.94;99479.36;1766352;80;21261;-53
2021/08/25 00:57:26;;;;;;;6.85;6.20;;;;;;;18.66;77.85;99481.72;1770032;80;20974;-53
2021/08/25 00:59:54;;;;;;;8.48;7.05;;;;;;;18.63;77.81;99475.19;1770663;80;20871;-54
2021/08/25 01:02:32;;;;;;;10.00;6.17;;;;;;;18.62;77.78;99476.18;1773931;80;20937;-52
2021/08/25 01:04:59;;;;;;;10.08;6.72;;;;;;;18.60;77.85;99475.44;1771875;80;20875;-54
2021/08/25 01:07:29;;;;;;;13.18;7.17;;;;;;;18.59;78.00;99476.43;1769830;80;22142;-54
2021/08/25 01:09:56;;;;;;;9.65;7.70;;;;;;;18.58;78.16;99466.02;1773850;80;20942;-53
2021/08/25 01:12:27;;;;;;;7.95;6.42;;;;;;;18.59;78.13;99462.30;1690269;82;20971;-53
2021/08/25 01:14:55;;;;;;;7.67;6.97;;;;;;;18.59;77.99;99461.44;1702064;82;21550;-53
2021/08/25 01:17:23;;;;;;;12.33;7.30;;;;;;;18.57;77.93;99464.29;1704092;82;21515;-53
2021/08/25 01:20:10;;;;;;;8.98;8.15;;;;;;;18.56;78.03;99461.66;1700602;82;21453;-53
2021/08/25 01:22:41;;;;;;;7.60;6.75;;;;;;;18.56;78.13;99454.84;1700155;83;21715;-53
2021/08/25 01:25:09;;;;;;;7.30;6.53;;;;;;;18.55;78.17;99452.61;1708152;82;21643;-53
2021/08/25 01:27:38;;;;;;;8.38;6.37;;;;;;;18.56;78.08;99439.85;1705358;82;21077;-53
2021/08/25 01:30:06;;;;;;;6.80;5.40;;;;;;;18.56;78.02;99428.95;1710901;82;21595;-54
2021/08/25 01:32:36;;;;;;;8.53;6.10;;;;;;;18.55;77.83;99430.81;1709829;82;21392;-54
2021/08/25 01:35:03;;;;;;;7.05;6.37;;;;;;;18.54;77.83;99439.48;1696841;83;20951;-53
2021/08/25 01:37:29;;;;;;;7.50;6.80;;;;;;;18.54;77.74;99440.02;1706890;82;20912;-53
2021/08/25 01:39:59;;;;;;;7.08;6.47;;;;;;;18.53;77.63;99439.14;1710372;82;21034;-54
2021/08/25 01:42:25;;;;;;;9.40;8.40;;;;;;;18.50;77.57;99431.72;1732190;82;21105;-53
2021/08/25 01:44:52;;;;;;;7.75;6.95;;;;;;;18.47;77.55;99426.02;1717027;82;21199;-53
2021/08/25 01:47:19;;;;;;;7.22;6.58;;;;;;;18.46;77.66;99422.92;1713529;81;21137;-54
2021/08/25 01:49:46;;;;;;;7.78;6.55;;;;;;;18.47;77.73;99422.42;1714988;82;21003;-53
2021/08/25 01:52:13;;;;;;;6.53;5.90;;;;;;;18.48;77.81;99417.34;1712977;82;21041;-53
2021/08/25 01:54:44;;;;;;;7.97;6.75;;;;;;;18.47;77.88;99420.56;1715692;82;21362;-53
2021/08/25 01:57:10;;;;;;;8.00;6.62;;;;;;;18.47;77.94;99411.52;1705722;83;21424;-54
2021/08/25 01:59:36;;;;;;;7.40;6.40;;;;;;;18.46;77.99;99412.52;1693459;82;20988;-54
2021/08/25 02:02:03;;;;;;;7.80;7.00;;;;;;;18.45;78.08;99408.09;1718602;80;21093;-54
2021/08/25 02:04:30;;;;;;;7.85;6.72;;;;;;;18.45;78.17;99402.64;1721208;80;21447;-52
2021/08/25 02:06:56;;;;;;;7.87;7.17;;;;;;;18.45;78.20;99404.88;1719865;80;21582;-54
2021/08/25 02:09:22;;;;;;;7.97;6.78;;;;;;;18.46;78.26;99401.62;1721668;80;21510;-53
2021/08/25 02:11:49;;;;;;;13.22;8.30;;;;;;;18.47;78.36;99400.63;1718921;80;21161;-53
2021/08/25 02:14:15;;;;;;;8.93;8.03;;;;;;;18.47;78.43;99393.31;1722430;80;21104;-53
2021/08/25 02:16:41;;;;;;;8.23;7.55;;;;;;;18.47;78.41;99395.17;1719566;80;21042;-53
2021/08/25 02:19:08;;;;;;;9.70;8.78;;;;;;;18.44;78.40;99388.65;1719800;80;21118;-53
2021/08/25 02:21:34;;;;;;;7.30;6.60;;;;;;;18.42;78.37;99395.59;1721132;80;21148;-53
2021/08/25 02:24:01;;;;;;;12.53;6.83;;;;;;;18.41;78.44;99397.08;1718759;80;21065;-53
2021/08/25 02:26:28;;;;;;;8.28;7.33;;;;;;;18.40;78.43;99393.98;1719857;80;21508;-53
2021/08/25 02:28:55;;;;;;;9.70;6.87;;;;;;;18.38;78.47;99388.66;1718069;80;21442;-54
2021/08/25 02:31:21;;;;;;;8.00;6.95;;;;;;;18.36;78.50;99383.00;1717165;80;21526;-53
2021/08/25 02:33:48;;;;;;;7.53;6.92;;;;;;;18.36;78.56;99383.00;1717526;80;21508;-53
2021/08/25 02:36:16;;;;;;;7.90;7.20;;;;;;;18.36;78.63;99391.17;1713638;80;21811;-53
2021/08/25 02:38:43;;;;;;;6.95;6.37;;;;;;;18.36;78.67;99388.44;1722363;80;20951;-53
2021/08/25 02:41:12;;;;;;;8.60;7.08;;;;;;;18.36;78.62;99386.59;1716099;80;20942;-54
2021/08/25 02:43:39;;;;;;;7.83;7.12;;;;;;;18.37;78.63;99384.73;1722833;80;21267;-53
2021/08/25 02:46:06;;;;;;;9.25;8.45;;;;;;;18.37;78.61;99376.55;1721619;80;22213;-53
2021/08/25 02:48:34;;;;;;;7.97;7.17;;;;;;;18.36;78.68;99378.41;1715510;80;21286;-54
2021/08/25 02:51:01;;;;;;;7.28;6.67;;;;;;;18.36;78.66;99377.05;1719502;80;21705;-53
2021/08/25 02:53:27;;;;;;;8.90;6.53;;;;;;;18.36;78.63;99377.55;1718129;80;21068;-53
2021/08/25 02:55:54;;;;;;;6.78;6.28;;;;;;;18.36;78.68;99385.72;1717535;80;22100;-52
2021/08/25 02:58:21;;;;;;;7.70;6.80;;;;;;;18.35;78.68;99378.54;1717097;80;21511;-54
2021/08/25 03:00:47;;;;;;;7.00;6.33;;;;;;;18.34;78.70;99379.53;1741363;80;21477;-53
2021/08/25 03:03:14;;;;;;;8.25;6.87;;;;;;;18.34;78.67;99384.48;1756749;80;21472;-54
2021/08/25 03:05:40;;;;;;;8.05;7.25;;;;;;;18.35;78.59;99385.35;1758482;80;21320;-53
2021/08/25 03:08:07;;;;;;;8.25;7.58;;;;;;;18.32;78.45;99388.33;1757352;80;20994;-53
2021/08/25 03:10:33;;;;;;;9.25;7.50;;;;;;;18.31;78.35;99382.50;1762449;80;21149;-52
2021/08/25 03:13:01;;;;;;;7.05;6.42;;;;;;;18.27;78.31;99381.92;1749883;80;21109;-54
2021/08/25 03:15:29;;;;;;;8.55;6.50;;;;;;;18.25;78.37;99385.77;1753010;80;20974;-53
2021/08/25 03:17:56;;;;;;;7.92;5.83;;;;;;;18.22;78.45;99384.16;1755512;80;21652;-53
2021/08/25 03:20:23;;;;;;;8.23;6.42;;;;;;;18.21;78.56;99385.64;1751637;80;21493;-54
2021/08/25 03:22:49;;;;;;;7.00;6.17;;;;;;;18.20;78.70;99385.31;1752724;80;21438;-54
2021/08/25 03:25:15;;;;;;;6.72;6.22;;;;;;;18.20;78.75;99388.03;1755941;80;21019;-54
2021/08/25 03:27:42;;;;;;;7.33;6.70;;;;;;;18.20;78.67;99392.12;1758093;80;20954;-53
2021/08/25 03:30:09;;;;;;;8.33;7.53;;;;;;;18.19;78.72;99391.75;1763512;80;20939;-54
2021/08/25 03:32:36;;;;;;;7.95;7.30;;;;;;;18.20;78.78;99394.34;1755805;80;21425;-53
2021/08/25 03:35:02;;;;;;;8.85;8.05;;;;;;;18.21;78.87;99391.09;1697953;82;21446;-53
2021/08/25 03:37:29;;;;;;;9.35;7.53;;;;;;;18.21;78.89;99396.05;1753673;80;21400;-52
2021/08/25 03:39:55;;;;;;;6.95;6.33;;;;;;;18.20;78.89;99390.76;1755372;80;21273;-52
2021/08/25 03:42:22;;;;;;;7.65;6.03;;;;;;;18.19;78.93;99379.48;1758720;80;21448;-54
2021/08/25 03:44:49;;;;;;;6.00;5.28;;;;;;;18.17;79.03;99379.61;1699205;82;21356;-54
2021/08/25 03:47:15;;;;;;;7.95;7.05;;;;;;;18.17;79.06;99391.00;1763757;80;21119;-53
2021/08/25 03:49:42;;;;;;;7.12;6.15;;;;;;;18.17;79.10;99385.56;1759536;80;20943;-54
2021/08/25 03:52:09;;;;;;;6.60;5.83;;;;;;;18.20;79.21;99385.31;1753696;80;20872;-52
2021/08/25 03:54:35;;;;;;;6.00;5.37;;;;;;;18.21;79.25;99389.23;1762777;80;20918;-53
2021/08/25 03:57:01;;;;;;;6.85;5.10;;;;;;;18.23;79.28;99375.48;1762559;80;20963;-52
2021/08/25 03:59:28;;;;;;;7.37;6.65;;;;;;;18.25;79.22;99377.59;1762416;80;21104;-52
2021/08/25 04:01:55;;;;;;;8.05;7.45;;;;;;;18.26;79.25;99383.41;1766068;80;20911;-52
2021/08/25 04:04:21;;;;;;;8.10;6.75;;;;;;;18.27;79.20;99384.65;1705752;82;20909;-51
2021/08/25 04:06:47;;;;;;;6.22;5.72;;;;;;;18.27;79.22;99381.92;1763639;80;20970;-52
2021/08/25 04:09:14;;;;;;;6.60;6.05;;;;;;;18.29;79.24;99382.63;1759214;80;20974;-53
2021/08/25 04:11:40;;;;;;;7.15;6.17;;;;;;;18.29;79.29;99386.72;1759967;80;22405;-52
2021/08/25 04:14:06;;;;;;;7.10;5.42;;;;;;;18.30;79.30;99391.67;1756725;80;21473;-53
2021/08/25 04:16:33;;;;;;;6.97;6.37;;;;;;;18.30;79.36;99387.09;1759927;80;21029;-53
2021/08/25 04:18:59;;;;;;;8.28;6.58;;;;;;;18.31;79.38;99378.42;1762493;80;21049;-53
2021/08/25 04:21:25;;;;;;;7.42;6.80;;;;;;;18.33;79.40;99379.16;1702105;82;21079;-51
2021/08/25 04:23:52;;;;;;;7.40;6.72;;;;;;;18.35;79.33;99371.73;1764603;80;23346;-52
2021/08/25 04:26:18;;;;;;;6.92;5.37;;;;;;;18.37;79.33;99371.10;1755191;80;21017;-52
2021/08/25 04:28:45;;;;;;;6.65;5.92;;;;;;;18.37;79.44;99371.94;1758902;80;21063;-53
2021/08/25 04:31:11;;;;;;;7.80;7.10;;;;;;;18.40;79.50;99377.63;1756272;80;21069;-52
2021/08/25 04:33:37;;;;;;;9.40;8.55;;;;;;;18.43;79.44;99370.06;1755476;80;21078;-52
2021/08/25 04:36:04;;;;;;;9.75;8.73;;;;;;;18.45;79.33;99365.86;1762020;80;21464;-52
2021/08/25 04:38:31;;;;;;;12.85;8.75;;;;;;;18.47;79.29;99373.38;1753046;80;21069;-52
2021/08/25 04:40:58;;;;;;;9.48;7.50;;;;;;;18.46;79.22;99359.38;1758486;80;21551;-52
2021/08/25 04:43:26;;;;;;;7.60;6.90;;;;;;;18.47;79.13;99371.52;1704661;82;21044;-52
2021/08/25 04:45:52;;;;;;;8.00;7.05;;;;;;;18.47;79.10;99363.84;1762233;80;21025;-53
2021/08/25 04:48:19;;;;;;;8.58;7.87;;;;;;;18.48;79.17;99375.11;1762998;80;22354;-54
2021/08/25 04:50:45;;;;;;;13.50;8.70;;;;;;;18.48;79.21;99369.16;1758503;80;21547;-52
2021/08/25 04:53:11;;;;;;;8.03;7.30;;;;;;;18.48;79.24;99373.74;1701469;82;21095;-53
2021/08/25 04:55:38;;;;;;;8.33;7.30;;;;;;;18.48;79.36;99361.48;1755905;80;21081;-53
2021/08/25 04:58:05;;;;;;;7.80;7.20;;;;;;;18.51;79.39;99359.86;1757738;80;21082;-53
2021/08/25 05:00:31;;;;;;;7.33;6.70;;;;;;;18.52;79.45;99359.73;1763119;80;21057;-52
2021/08/25 05:02:58;;;;;;;11.55;8.53;;;;;;;18.56;79.42;99367.13;1767368;80;21046;-53
2021/08/25 05:05:24;;;;;;;9.93;9.03;;;;;;;18.59;79.40;99360.09;1757838;79;21066;-51
2021/08/25 05:07:52;;;;;;;11.73;10.60;;;;;;;18.61;79.36;99364.91;1760937;80;21068;-53
2021/08/25 05:10:19;;;;;;;10.00;9.15;;;;;;;18.64;79.39;99369.21;1763504;79;21167;-52
2021/08/25 05:12:45;;;;;;;10.00;8.95;;;;;;;18.63;79.42;99362.89;1762925;80;23334;-52
2021/08/25 05:15:12;;;;;;;11.15;10.08;;;;;;;18.65;79.29;99363.63;1766972;79;21104;-53
2021/08/25 05:17:39;;;;;;;9.73;8.53;;;;;;;18.68;79.26;99360.65;1709508;82;20915;-53
2021/08/25 05:20:06;;;;;;;9.55;8.78;;;;;;;18.71;79.28;99360.89;1774723;79;21018;-52
2021/08/25 05:22:34;;;;;;;10.95;9.65;;;;;;;18.74;79.25;99356.51;1770080;79;21045;-53
2021/08/25 05:25:00;;;;;;;9.28;8.30;;;;;;;18.77;79.15;99355.75;1766882;80;23288;-52
2021/08/25 05:27:27;;;;;;;11.20;9.95;;;;;;;18.80;79.15;99358.19;1769578;79;21085;-53
2021/08/25 05:29:54;;;;;;;11.63;10.58;;;;;;;18.83;79.18;99357.93;1769947;80;21053;-53
2021/08/25 05:32:20;;;;;;;13.68;10.68;;;;;;;18.87;78.87;99355.81;1757616;80;21732;-53
2021/08/25 05:34:47;;;;;;;12.05;10.85;;;;;;;18.90;78.84;99355.52;1764576;80;21065;-53
2021/08/25 05:37:13;;;;;;;11.08;10.00;;;;;;;18.92;78.71;99355.38;1761036;79;21003;-52
2021/08/25 05:39:39;;;;;;;13.05;10.20;;;;;;;18.93;78.58;99348.94;1767746;79;21036;-52
2021/08/25 05:42:05;;;;;;;10.63;9.48;;;;;;;18.96;78.53;99351.41;1769061;80;21445;-53
2021/08/25 05:44:32;;;;;;;11.03;9.95;;;;;;;18.99;78.59;99345.65;1709096;82;21053;-52
2021/08/25 05:46:58;;;;;;;11.88;10.13;;;;;;;19.00;78.64;99349.61;1708047;83;21479;-53
2021/08/25 05:49:24;;;;;;;11.12;10.13;;;;;;;19.04;78.75;99348.35;1765437;79;21075;-52
2021/08/25 05:51:51;;;;;;;13.45;9.78;;;;;;;19.08;78.95;99348.92;1765250;79;21002;-52
2021/08/25 05:54:17;;;;;;;10.53;9.48;;;;;;;19.14;78.91;99347.03;1762270;80;21093;-52
2021/08/25 05:56:43;;;;;;;9.93;8.75;;;;;;;19.19;78.95;99348.33;1758445;80;21074;-53
2021/08/25 05:59:10;;;;;;;11.00;10.05;;;;;;;19.27;78.78;99347.64;1762928;80;21105;-52
2021/08/25 06:01:37;;;;;;;13.18;10.85;;;;;;;19.32;78.58;99348.07;1702082;82;21781;-53
2021/08/25 06:04:04;;;;;;;12.15;10.90;;;;;;;19.36;78.28;99339.98;1760757;80;21034;-53
2021/08/25 06:06:31;;;;;;;14.30;12.73;;;;;;;19.39;78.04;99332.89;1756855;80;21056;-53
2021/08/25 06:08:59;;;;;;;11.10;9.75;;;;;;;19.44;77.66;99332.46;1762628;80;21431;-52
2021/08/25 06:11:25;;;;;;;10.65;9.55;;;;;;;19.47;77.49;99341.28;1760064;80;21482;-53
2021/08/25 06:13:52;;;;;;;9.60;8.75;;;;;;;19.53;77.56;99345.30;1760047;80;21707;-53
2021/08/25 06:16:20;;;;;;;12.60;8.98;;;;;;;19.59;77.66;99347.46;1763352;80;21286;-53
2021/08/25 06:18:46;;;;;;;11.85;9.38;;;;;;;19.64;77.69;99343.33;1761353;80;21049;-53
2021/08/25 06:21:16;;;;;;;13.70;9.25;;;;;;;19.71;77.58;99345.48;1759757;80;21528;-53
2021/08/25 06:23:44;;;;;;;9.65;7.78;;;;;;;19.80;77.34;99341.91;1696314;82;21414;-52
2021/08/25 06:26:11;;;;;;;13.05;8.08;;;;;;;19.87;76.87;99338.45;1762153;80;21101;-53
2021/08/25 06:28:37;;;;;;;9.30;7.65;;;;;;;19.95;76.52;99334.50;1764665;80;20947;-52
2021/08/25 06:31:03;;;;;;;8.13;7.20;;;;;;;20.07;76.12;99331.64;1759935;80;20950;-53
2021/08/25 06:33:30;;;;;;;9.93;6.95;;;;;;;20.17;75.75;99328.38;1765455;80;20898;-52
2021/08/25 06:35:57;;;;;;;9.28;6.85;;;;;;;20.29;75.42;99336.79;1763445;80;21014;-52
2021/08/25 06:38:23;;;;;;;7.20;6.03;;;;;;;20.40;74.79;99344.87;1767633;80;22180;-53
2021/08/25 06:40:50;;;;;;;7.72;6.67;;;;;;;20.47;73.78;99352.84;1760339;80;20930;-53
2021/08/25 06:43:18;;;;;;;9.33;7.33;;;;;;;20.52;73.25;99343.69;1767836;80;20894;-54
2021/08/25 06:45:45;;;;;;;7.00;6.50;;;;;;;20.58;73.04;99348.59;1764312;80;20959;-53
2021/08/25 06:48:11;;;;;;;9.35;7.85;;;;;;;20.68;73.39;99349.91;1763129;80;20931;-53
2021/08/25 06:50:38;;;;;;;10.10;7.33;;;;;;;20.77;73.18;99347.16;1760827;80;21082;-53
2021/08/25 06:53:04;;;;;;;9.00;7.42;;;;;;;20.87;72.59;99351.73;1764210;80;20926;-53
2021/08/25 06:55:32;;;;;;;8.13;7.35;;;;;;;20.96;71.83;99348.97;1764708;80;20965;-53
2021/08/25 06:57:59;;;;;;;11.73;6.87;;;;;;;21.04;71.41;99356.44;1764347;80;20920;-53
2021/08/25 07:00:25;;;;;;;8.23;6.37;;;;;;;21.10;71.27;99353.95;1762769;80;20954;-52
2021/08/25 07:02:51;;;;;;;8.23;7.53;;;;;;;21.18;71.44;99352.40;1760785;80;21073;-51
2021/08/25 07:05:17;;;;;;;7.75;7.00;;;;;;;21.24;71.08;99360.86;1759311;80;20899;-53
2021/08/25 07:07:44;;;;;;;6.87;6.15;;;;;;;21.29;70.79;99365.87;1694969;82;20948;-52
2021/08/25 07:10:11;;;;;;;7.60;6.75;;;;;;;21.31;70.89;99366.59;1755096;80;20970;-52
2021/08/25 07:12:39;;;;;;;7.33;5.87;;;;;;;21.33;70.75;99370.04;1757432;80;21073;-53
2021/08/25 07:15:06;;;;;;;5.35;4.95;;;;;;;21.35;70.17;99373.50;1695685;82;21137;-52
2021/08/25 07:17:32;;;;;;;6.55;4.80;;;;;;;21.33;70.07;99372.27;1753474;80;21085;-53
2021/08/25 07:19:59;;;;;;;5.47;4.72;;;;;;;21.32;70.05;99379.27;1750949;80;21033;-54
2021/08/25 07:22:26;;;;;;;5.97;5.03;;;;;;;21.32;70.10;99369.68;1754533;80;21066;-53
2021/08/25 07:24:52;;;;;;;6.67;5.97;;;;;;;21.28;70.45;99369.11;1753830;80;21050;-53
2021/08/25 07:27:18;;;;;;;7.75;5.80;;;;;;;21.27;70.69;99368.75;1757019;80;21125;-53
2021/08/25 07:29:45;;;;;;;7.75;6.95;;;;;;;21.23;70.93;99365.98;1750625;80;21035;-54
2021/08/25 07:32:11;;;;;;;6.33;5.75;;;;;;;21.18;70.86;99364.72;1758980;80;21054;-51
2021/08/25 07:34:38;;;;;;;5.42;4.92;;;;;;;21.14;70.73;99373.69;1752990;80;21724;-53
2021/08/25 07:37:04;;;;;;;5.85;5.12;;;;;;;21.07;70.80;99362.48;1748522;80;21101;-52
2021/08/25 07:39:30;;;;;;;7.12;5.75;;;;;;;21.03;71.01;99364.28;1756412;80;21086;-52
2021/08/25 07:41:57;;;;;;;7.30;6.53;;;;;;;21.00;71.03;99363.23;1756246;80;21077;-54
2021/08/25 07:44:23;;;;;;;8.00;7.33;;;;;;;20.95;71.20;99365.03;1757114;80;21045;-53
2021/08/25 07:46:53;;;;;;;8.40;6.95;;;;;;;20.91;71.25;99364.98;1750623;80;21082;-54
2021/08/25 07:49:18;;;;;;;10.93;8.88;;;;;;;20.87;71.63;99357.21;1752971;80;21065;-53
2021/08/25 07:51:45;;;;;;;9.40;8.20;;;;;;;20.86;71.79;99360.95;1756732;80;21142;-53
2021/08/25 07:54:11;;;;;;;9.35;8.48;;;;;;;20.85;72.00;99360.09;1748139;80;21081;-53
2021/08/25 07:56:37;;;;;;;9.45;7.30;;;;;;;20.86;72.22;99365.92;1757359;80;21061;-53
2021/08/25 07:59:04;;;;;;;8.43;7.53;;;;;;;20.89;72.50;99369.73;1752428;80;22230;-53
2021/08/25 08:01:33;;;;;;;8.93;7.90;;;;;;;20.91;72.60;99364.98;1755634;80;21182;-52
2021/08/25 08:04:00;;;;;;;11.93;8.95;;;;;;;20.94;72.63;99362.44;1760370;80;21463;-53
2021/08/25 08:06:26;;;;;;;9.45;8.58;;;;;;;20.95;72.50;99362.30;1767503;80;20878;-53
2021/08/25 08:08:52;;;;;;;10.45;9.15;;;;;;;20.95;72.58;99356.83;1769207;79;20860;-54
2021/08/25 08:11:18;;;;;;;11.65;10.50;;;;;;;20.97;72.41;99363.52;1768923;80;20939;-54
2021/08/25 08:13:45;;;;;;;11.95;9.38;;;;;;;20.97;72.36;99357.55;1761235;79;21566;-53
2021/08/25 08:16:17;;;;;;;12.93;8.90;;;;;;;20.99;72.44;99365.61;1764186;79;21575;-53
2021/08/25 08:18:42;;;;;;;10.28;9.48;;;;;;;21.00;72.27;99365.47;1763259;80;21062;-54
2021/08/25 08:21:07;;;;;;;9.20;8.40;;;;;;;21.03;72.40;99366.52;1764662;79;21702;-53
2021/08/25 08:23:34;;;;;;;8.80;7.85;;;;;;;21.08;72.50;99360.61;1759633;80;21546;-54
2021/08/25 08:26:00;;;;;;;11.22;8.75;;;;;;;21.14;72.42;99357.27;1762690;80;21503;-54
2021/08/25 08:28:27;;;;;;;11.40;8.93;;;;;;;21.18;72.18;99350.48;1701177;82;21108;-54
2021/08/25 08:30:53;;;;;;;8.75;8.00;;;;;;;21.23;72.08;99352.29;1770132;79;21072;-54
2021/08/25 08:33:19;;;;;;;8.98;8.15;;;;;;;21.30;71.74;99361.61;1763808;80;21097;-54
2021/08/25 08:35:47;;;;;;;8.83;8.13;;;;;;;21.37;71.87;99355.88;1765725;79;21049;-54
2021/08/25 08:38:13;;;;;;;6.75;6.25;;;;;;;21.44;72.00;99347.41;1762469;80;21033;-54
2021/08/25 08:40:40;;;;;;;7.17;6.45;;;;;;;21.54;71.74;99344.63;1763514;79;21719;-54
2021/08/25 08:43:09;;;;;;;7.30;5.78;;;;;;;21.60;71.66;99349.51;1723414;80;21138;-53
2021/08/25 08:45:42;;;;;;;6.20;5.70;;;;;;;21.68;71.43;99343.26;1761370;79;21104;-54
2021/08/25 08:48:13;;;;;;;5.25;4.75;;;;;;;21.74;71.12;99343.49;1764125;80;21017;-53
2021/08/25 08:50:41;;;;;;;5.87;5.47;;;;;;;21.79;70.74;99344.38;1759441;80;22167;-54
2021/08/25 08:53:09;;;;;;;5.28;4.75;;;;;;;21.80;69.89;99347.48;1761889;80;22812;-54
2021/08/25 08:55:36;;;;;;;5.62;5.22;;;;;;;21.79;69.67;99343.02;1763552;80;21035;-54
2021/08/25 08:58:02;;;;;;;5.33;4.83;;;;;;;21.77;69.59;99345.94;1766711;80;21113;-54
2021/08/25 09:00:29;;;;;;;6.62;5.95;;;;;;;21.76;69.78;99341.98;1760737;80;21686;-54
2021/08/25 09:02:55;;;;;;;7.65;4.53;;;;;;;21.77;69.99;99347.30;1753158;80;21034;-54
2021/08/25 09:05:25;;;;;;;4.40;4.17;;;;;;;21.81;69.99;99344.59;1755064;80;21077;-54
2021/08/25 09:09:56;;;;;;;6.50;5.33;;;;;;;22.00;69.92;99335.41;1795086;77;22558;-51
2021/08/25 09:12:22;;;;;;;5.85;5.15;;;;;;;22.06;69.13;99324.31;1704878;81;21109;-52
2021/08/25 09:14:50;;;;;;;7.42;4.90;;;;;;;22.17;69.27;99322.71;1737144;81;21242;-51
2021/08/25 09:17:27;;;;;;;5.05;4.70;;;;;;;22.30;69.17;99325.89;1736789;80;20914;-53
2021/08/25 09:20:09;;;;;;;4.28;3.98;;;;;;;22.41;68.83;99328.39;1732345;81;20891;-54
2021/08/25 09:22:35;;;;;;;4.55;4.25;;;;;;;22.48;68.06;99327.23;1730588;81;21339;-54
2021/08/25 09:25:02;;;;;;;4.28;3.45;;;;;;;22.57;67.74;99324.41;1731143;80;21491;-53
2021/08/25 09:27:29;;;;;;;5.70;3.90;;;;;;;22.61;67.38;99320.84;1739519;80;21287;-54
2021/08/25 09:29:57;;;;;;;4.25;3.83;;;;;;;22.65;67.00;99322.23;1704834;81;20958;-54
2021/08/25 09:32:26;;;;;;;4.87;3.83;;;;;;;22.71;66.76;99318.00;1706524;81;21425;-54
2021/08/25 09:35:00;;;;;;;6.05;3.33;;;;;;;22.77;66.31;99320.12;1709054;82;20991;-54
2021/08/25 09:37:27;;;;;;;;;;;;;;;22.78;65.89;99316.36;1704376;81;20924;-54
2021/08/25 09:40:00;;;;;;;4.78;4.30;;;;;;;22.82;65.53;99314.99;1705533;81;22291;-53
2021/08/25 09:42:27;;;;;;;3.83;3.35;;;;;;;22.82;65.35;99309.50;1720906;81;20936;-54
2021/08/25 09:45:06;;;;;;;4.42;3.45;;;;;;;22.78;65.36;99305.38;1641974;81;21134;-53
2021/08/25 09:47:51;;;;;;;4.90;4.37;;;;;;;22.75;65.38;99304.32;1729931;80;21054;-54
2021/08/25 09:50:20;;;;;;;4.45;4.15;;;;;;;22.73;65.54;99305.81;1701312;81;21722;-54
2021/08/25 09:52:46;;;;;;;4.47;4.25;;;;;;;22.70;66.18;99308.05;1733204;80;23350;-54
2021/08/25 09:55:14;;;;;;;7.58;4.45;;;;;;;22.65;66.15;99313.48;1730638;80;21023;-53
2021/08/25 09:57:43;;;;;;;10.45;5.45;;;;;;;22.62;66.25;99304.23;1709678;81;21621;-53
2021/08/25 10:00:11;;;;;;;5.40;5.00;;;;;;;22.59;66.66;99306.42;1728794;81;21576;-54
2021/08/25 10:02:39;;;;;;;5.05;4.65;;;;;;;22.54;66.82;99301.40;1727308;81;21032;-54
2021/08/25 10:05:09;;;;;;;4.40;4.10;;;;;;;22.48;67.17;99293.82;1725341;81;21505;-53
2021/08/25 10:07:35;;;;;;;4.33;4.00;;;;;;;22.45;67.11;99286.45;1729967;80;20993;-54
2021/08/25 10:10:02;;;;;;;4.60;4.20;;;;;;;22.45;67.01;99277.70;1730888;80;20897;-54
2021/08/25 10:12:28;;;;;;;5.65;4.08;;;;;;;22.49;67.34;99285.95;1709072;81;21105;-54
2021/08/25 10:14:55;;;;;;;4.12;3.60;;;;;;;22.55;67.00;99277.06;1703128;82;21079;-53
2021/08/25 10:17:41;;;;;;;3.52;3.12;;;;;;;22.63;66.54;99273.00;1723948;80;21771;-53
2021/08/25 10:20:26;;;;;;;3.52;3.08;;;;;;;22.71;66.36;99272.73;1708162;82;21075;-53
2021/08/25 10:22:53;;;;;;;3.87;3.22;;;;;;;22.80;66.20;99279.48;1678700;82;21152;-53
2021/08/25 10:25:19;;;;;;;8.23;4.25;;;;;;;22.87;66.40;99275.59;1722811;80;21597;-54
2021/08/25 10:28:04;;;;;;;5.05;3.52;;;;;;;22.92;66.22;99275.95;1709861;81;21130;-55
2021/08/25 10:30:47;;;;;;;3.05;2.85;;;;;;;23.02;66.06;99283.55;1697521;81;21168;-54
2021/08/25 10:33:15;;;;;;;3.17;2.87;;;;;;;23.11;65.22;99278.96;1695928;82;21049;-53
2021/08/25 10:35:44;;;;;;;2.17;2.08;;;;;;;23.20;65.20;99271.97;1706683;81;21512;-54
2021/08/25 10:38:26;;;;;;;1.42;1.32;;;;;;;23.28;64.87;99274.75;1705665;82;21457;-54
2021/08/25 10:41:01;;;;;;;2.87;2.00;;;;;;;23.34;63.64;99266.34;1699317;82;21036;-54
2021/08/25 10:43:40;;;;;;;1.70;1.60;;;;;;;23.36;62.82;99266.53;1696377;82;22793;-54
2021/08/25 10:46:09;;;;;;;2.25;1.82;;;;;;;23.41;62.48;99264.64;1725644;81;22068;-54
2021/08/25 10:48:53;;;;;;;1.80;1.70;;;;;;;23.49;62.33;99259.72;1722295;82;21417;-54
2021/08/25 10:51:36;;;;;;;1.57;1.47;;;;;;;23.54;62.71;99250.48;1723294;82;21047;-55
2021/08/25 10:54:05;;;;;;;1.25;1.15;;;;;;;23.57;61.52;99233.64;1724322;80;21078;-53
2021/08/25 10:56:38;;;;;;;1.60;1.50;;;;;;;23.63;60.96;99231.61;1725928;82;22757;-54
2021/08/25 10:59:13;;;;;;;1.47;1.37;;;;;;;23.67;61.30;99235.20;1723606;80;21032;-53
2021/08/25 11:01:43;;;;;;;1.37;1.27;;;;;;;23.71;60.75;99237.97;1718319;80;21032;-55
2021/08/25 11:04:21;;;;;;;1.30;1.20;;;;;;;23.74;59.98;99229.88;1727391;80;20937;-53
2021/08/25 11:06:52;;;;;;;1.30;1.20;;;;;;;23.76;60.30;99230.58;1728834;82;20984;-54
2021/08/25 11:09:37;;;;;;;1.42;1.25;;;;;;;23.79;60.07;99226.64;1717150;82;21464;-54
2021/08/25 11:12:14;;;;;;;1.32;1.22;;;;;;;23.83;59.70;99229.38;1750311;79;21069;-53
2021/08/25 11:14:57;;;;;;;1.20;1.10;;;;;;;23.87;59.52;99231.63;1749712;79;21441;-54
2021/08/25 11:17:29;;;;;;;0.95;0.93;;;;;;;23.90;59.00;99225.80;1754162;79;21050;-54
2021/08/25 11:20:00;;;;;;;1.55;1.45;;;;;;;23.97;58.37;99218.58;1750970;79;21591;-54
2021/08/25 11:22:34;;;;;;;2.65;0.98;;;;;;;24.01;58.53;99215.81;1753967;79;21709;-54
2021/08/25 11:25:11;;;;;;;1.10;1.00;;;;;;;24.08;58.14;99215.97;1748497;79;21096;-55
2021/08/25 11:27:47;;;;;;;1.80;1.00;;;;;;;24.06;58.00;99213.94;1751713;79;21092;-53
2021/08/25 11:30:16;;;;;;;1.77;1.40;;;;;;;24.11;58.06;99215.13;1750647;79;21030;-54
2021/08/25 11:32:59;;;;;;;4.10;0.95;;;;;;;24.05;57.74;99213.59;1750209;79;21119;-55
2021/08/25 11:35:45;;;;;;;1.10;1.00;;;;;;;24.00;58.26;99214.61;1746830;79;21168;-54
2021/08/25 11:38:17;;;;;;;2.87;1.10;;;;;;;23.97;58.54;99219.09;1751432;79;21362;-54